sensor_id;sensor_type;location;lat;lon;timestamp;temperature;humidity
53498;DHT22;39382;47.168;16.008;2024-01-25T00:00:54;9.80;61.90
53498;DHT22;39382;47.168;16.008;2024-01-25T00:03:19;9.40;62.90
53498;DHT22;39382;47.168;16.008;2024-01-25T00:05:45;9.20;61.40
53498;DHT22;39382;47.168;16.008;2024-01-25T00:08:10;9.30;60.60
53498;DHT22;39382;47.168;16.008;2024-01-25T00:10:36;9.50;59.00
53498;DHT22;39382;47.168;16.008;2024-01-25T00:13:02;10.00;56.60
53498;DHT22;39382;47.168;16.008;2024-01-25T00:15:27;10.50;55.00
53498;DHT22;39382;47.168;16.008;2024-01-25T00:17:53;10.80;54.40
53498;DHT22;39382;47.168;16.008;2024-01-25T00:20:19;10.70;54.50
53498;DHT22;39382;47.168;16.008;2024-01-25T00:22:44;10.60;55.30
53498;DHT22;39382;47.168;16.008;2024-01-25T00:25:10;10.70;54.20
53498;DHT22;39382;47.168;16.008;2024-01-25T00:27:36;10.60;54.60
53498;DHT22;39382;47.168;16.008;2024-01-25T00:30:02;10.50;55.60
53498;DHT22;39382;47.168;16.008;2024-01-25T00:32:27;10.20;56.90
53498;DHT22;39382;47.168;16.008;2024-01-25T00:34:53;10.10;57.70
53498;DHT22;39382;47.168;16.008;2024-01-25T00:37:19;9.80;58.50
53498;DHT22;39382;47.168;16.008;2024-01-25T00:39:45;9.60;59.00
53498;DHT22;39382;47.168;16.008;2024-01-25T00:42:12;9.50;58.30
53498;DHT22;39382;47.168;16.008;2024-01-25T00:44:39;9.40;59.50
53498;DHT22;39382;47.168;16.008;2024-01-25T00:47:05;9.30;59.20
53498;DHT22;39382;47.168;16.008;2024-01-25T00:49:31;9.10;61.60
53498;DHT22;39382;47.168;16.008;2024-01-25T00:52:00;9.00;62.10
53498;DHT22;39382;47.168;16.008;2024-01-25T00:54:26;9.10;59.70
53498;DHT22;39382;47.168;16.008;2024-01-25T00:56:52;9.00;60.30
53498;DHT22;39382;47.168;16.008;2024-01-25T00:59:19;9.40;58.20
53498;DHT22;39382;47.168;16.008;2024-01-25T01:01:47;9.60;57.50
53498;DHT22;39382;47.168;16.008;2024-01-25T01:04:14;9.70;57.70
53498;DHT22;39382;47.168;16.008;2024-01-25T01:06:40;9.70;57.20
53498;DHT22;39382;47.168;16.008;2024-01-25T01:09:06;9.80;57.00
53498;DHT22;39382;47.168;16.008;2024-01-25T01:11:31;10.00;55.90
53498;DHT22;39382;47.168;16.008;2024-01-25T01:13:57;10.20;55.40
53498;DHT22;39382;47.168;16.008;2024-01-25T01:16:23;10.30;55.50
53498;DHT22;39382;47.168;16.008;2024-01-25T01:18:48;10.20;56.40
53498;DHT22;39382;47.168;16.008;2024-01-25T01:21:14;10.20;55.70
53498;DHT22;39382;47.168;16.008;2024-01-25T01:23:39;10.10;56.40
53498;DHT22;39382;47.168;16.008;2024-01-25T01:26:05;10.00;57.90
53498;DHT22;39382;47.168;16.008;2024-01-25T01:28:31;9.70;58.40
53498;DHT22;39382;47.168;16.008;2024-01-25T01:30:56;9.50;59.80
53498;DHT22;39382;47.168;16.008;2024-01-25T01:33:22;9.20;61.00
53498;DHT22;39382;47.168;16.008;2024-01-25T01:35:48;9.00;63.10
53498;DHT22;39382;47.168;16.008;2024-01-25T01:38:13;8.70;63.90
53498;DHT22;39382;47.168;16.008;2024-01-25T01:40:39;8.60;64.20
53498;DHT22;39382;47.168;16.008;2024-01-25T01:43:05;8.50;64.70
53498;DHT22;39382;47.168;16.008;2024-01-25T01:45:30;8.50;64.70
53498;DHT22;39382;47.168;16.008;2024-01-25T01:47:57;8.40;65.30
53498;DHT22;39382;47.168;16.008;2024-01-25T01:50:23;8.30;65.70
53498;DHT22;39382;47.168;16.008;2024-01-25T01:52:50;8.40;65.30
53498;DHT22;39382;47.168;16.008;2024-01-25T01:55:17;8.40;65.90
53498;DHT22;39382;47.168;16.008;2024-01-25T01:57:43;8.30;65.90
53498;DHT22;39382;47.168;16.008;2024-01-25T02:00:10;8.20;67.40
53498;DHT22;39382;47.168;16.008;2024-01-25T02:02:36;8.20;66.70
53498;DHT22;39382;47.168;16.008;2024-01-25T02:05:02;8.30;67.10
53498;DHT22;39382;47.168;16.008;2024-01-25T02:07:28;8.30;67.40
53498;DHT22;39382;47.168;16.008;2024-01-25T02:09:55;8.00;68.90
53498;DHT22;39382;47.168;16.008;2024-01-25T02:12:21;8.00;68.90
53498;DHT22;39382;47.168;16.008;2024-01-25T02:14:46;8.10;69.10
53498;DHT22;39382;47.168;16.008;2024-01-25T02:17:12;8.40;65.90
53498;DHT22;39382;47.168;16.008;2024-01-25T02:19:38;8.70;64.80
53498;DHT22;39382;47.168;16.008;2024-01-25T02:22:05;8.90;63.70
53498;DHT22;39382;47.168;16.008;2024-01-25T02:24:31;9.10;61.90
53498;DHT22;39382;47.168;16.008;2024-01-25T02:26:56;9.30;61.40
53498;DHT22;39382;47.168;16.008;2024-01-25T02:29:22;9.20;62.00
53498;DHT22;39382;47.168;16.008;2024-01-25T02:31:48;9.10;62.60
53498;DHT22;39382;47.168;16.008;2024-01-25T02:34:13;8.90;63.10
53498;DHT22;39382;47.168;16.008;2024-01-25T02:36:39;8.70;64.10
53498;DHT22;39382;47.168;16.008;2024-01-25T02:39:04;8.80;61.30
53498;DHT22;39382;47.168;16.008;2024-01-25T02:41:31;8.70;61.10
53498;DHT22;39382;47.168;16.008;2024-01-25T02:43:57;8.70;61.10
53498;DHT22;39382;47.168;16.008;2024-01-25T02:46:23;8.90;59.30
53498;DHT22;39382;47.168;16.008;2024-01-25T02:48:49;9.20;58.20
53498;DHT22;39382;47.168;16.008;2024-01-25T02:51:14;9.30;58.00
53498;DHT22;39382;47.168;16.008;2024-01-25T02:53:40;9.20;57.60
53498;DHT22;39382;47.168;16.008;2024-01-25T02:56:06;9.00;59.50
53498;DHT22;39382;47.168;16.008;2024-01-25T02:58:32;8.80;59.90
53498;DHT22;39382;47.168;16.008;2024-01-25T03:00:58;8.50;62.90
53498;DHT22;39382;47.168;16.008;2024-01-25T03:03:24;8.20;65.20
53498;DHT22;39382;47.168;16.008;2024-01-25T03:05:51;7.80;67.00
53498;DHT22;39382;47.168;16.008;2024-01-25T03:08:17;7.40;69.70
53498;DHT22;39382;47.168;16.008;2024-01-25T03:10:43;7.00;73.70
53498;DHT22;39382;47.168;16.008;2024-01-25T03:13:08;6.70;75.50
53498;DHT22;39382;47.168;16.008;2024-01-25T03:15:34;6.50;75.10
53498;DHT22;39382;47.168;16.008;2024-01-25T03:18:00;6.30;76.10
53498;DHT22;39382;47.168;16.008;2024-01-25T03:20:25;6.10;76.40
53498;DHT22;39382;47.168;16.008;2024-01-25T03:22:51;6.20;72.00
53498;DHT22;39382;47.168;16.008;2024-01-25T03:25:17;7.40;62.40
53498;DHT22;39382;47.168;16.008;2024-01-25T03:27:42;7.70;61.20
53498;DHT22;39382;47.168;16.008;2024-01-25T03:30:08;8.00;59.30
53498;DHT22;39382;47.168;16.008;2024-01-25T03:32:35;8.30;57.00
53498;DHT22;39382;47.168;16.008;2024-01-25T03:35:01;8.60;55.20
53498;DHT22;39382;47.168;16.008;2024-01-25T03:37:27;8.80;54.20
53498;DHT22;39382;47.168;16.008;2024-01-25T03:39:52;8.80;55.40
53498;DHT22;39382;47.168;16.008;2024-01-25T03:42:18;8.70;55.80
53498;DHT22;39382;47.168;16.008;2024-01-25T03:44:44;8.50;56.70
53498;DHT22;39382;47.168;16.008;2024-01-25T03:47:10;8.60;54.60
53498;DHT22;39382;47.168;16.008;2024-01-25T03:49:36;8.50;56.60
53498;DHT22;39382;47.168;16.008;2024-01-25T03:52:04;8.70;53.70
53498;DHT22;39382;47.168;16.008;2024-01-25T03:54:29;9.10;51.60
53498;DHT22;39382;47.168;16.008;2024-01-25T03:56:55;9.40;49.80
53498;DHT22;39382;47.168;16.008;2024-01-25T03:59:21;9.70;49.50
53498;DHT22;39382;47.168;16.008;2024-01-25T04:01:47;9.80;49.20
53498;DHT22;39382;47.168;16.008;2024-01-25T04:04:15;10.00;47.90
53498;DHT22;39382;47.168;16.008;2024-01-25T04:06:42;9.90;48.60
53498;DHT22;39382;47.168;16.008;2024-01-25T04:09:09;10.00;47.30
53498;DHT22;39382;47.168;16.008;2024-01-25T04:11:36;10.00;47.40
53498;DHT22;39382;47.168;16.008;2024-01-25T04:14:01;10.10;46.80
53498;DHT22;39382;47.168;16.008;2024-01-25T04:16:27;10.00;47.60
53498;DHT22;39382;47.168;16.008;2024-01-25T04:18:53;10.00;47.50
53498;DHT22;39382;47.168;16.008;2024-01-25T04:21:18;10.00;47.70
53498;DHT22;39382;47.168;16.008;2024-01-25T04:23:44;10.00;48.00
53498;DHT22;39382;47.168;16.008;2024-01-25T04:26:10;9.90;48.70
53498;DHT22;39382;47.168;16.008;2024-01-25T04:28:35;10.10;48.20
53498;DHT22;39382;47.168;16.008;2024-01-25T04:31:02;10.10;47.70
53498;DHT22;39382;47.168;16.008;2024-01-25T04:33:29;10.10;47.80
53498;DHT22;39382;47.168;16.008;2024-01-25T04:35:54;10.00;48.90
53498;DHT22;39382;47.168;16.008;2024-01-25T04:38:20;9.90;48.60
53498;DHT22;39382;47.168;16.008;2024-01-25T04:40:46;9.70;49.20
53498;DHT22;39382;47.168;16.008;2024-01-25T04:43:11;9.80;48.50
53498;DHT22;39382;47.168;16.008;2024-01-25T04:45:38;10.00;48.10
53498;DHT22;39382;47.168;16.008;2024-01-25T04:48:04;10.10;47.80
53498;DHT22;39382;47.168;16.008;2024-01-25T04:50:30;10.00;47.60
53498;DHT22;39382;47.168;16.008;2024-01-25T04:52:55;10.00;47.00
53498;DHT22;39382;47.168;16.008;2024-01-25T04:55:21;10.10;46.90
53498;DHT22;39382;47.168;16.008;2024-01-25T04:57:47;10.00;47.30
53498;DHT22;39382;47.168;16.008;2024-01-25T05:00:13;9.90;47.90
53498;DHT22;39382;47.168;16.008;2024-01-25T05:02:39;9.90;47.90
53498;DHT22;39382;47.168;16.008;2024-01-25T05:05:05;9.80;48.80
53498;DHT22;39382;47.168;16.008;2024-01-25T05:07:31;9.60;50.10
53498;DHT22;39382;47.168;16.008;2024-01-25T05:09:57;9.60;48.20
53498;DHT22;39382;47.168;16.008;2024-01-25T05:12:22;9.50;48.30
53498;DHT22;39382;47.168;16.008;2024-01-25T05:14:48;9.50;47.70
53498;DHT22;39382;47.168;16.008;2024-01-25T05:17:13;9.50;48.80
53498;DHT22;39382;47.168;16.008;2024-01-25T05:19:39;9.30;49.60
53498;DHT22;39382;47.168;16.008;2024-01-25T05:22:05;9.10;49.90
53498;DHT22;39382;47.168;16.008;2024-01-25T05:24:33;9.10;49.30
53498;DHT22;39382;47.168;16.008;2024-01-25T05:26:59;9.10;48.70
53498;DHT22;39382;47.168;16.008;2024-01-25T05:29:25;9.10;49.70
53498;DHT22;39382;47.168;16.008;2024-01-25T05:31:51;8.90;50.90
53498;DHT22;39382;47.168;16.008;2024-01-25T05:34:16;9.00;49.60
53498;DHT22;39382;47.168;16.008;2024-01-25T05:36:42;8.90;50.20
53498;DHT22;39382;47.168;16.008;2024-01-25T05:39:07;9.00;49.60
53498;DHT22;39382;47.168;16.008;2024-01-25T05:41:33;9.00;49.70
53498;DHT22;39382;47.168;16.008;2024-01-25T05:44:00;9.10;49.30
53498;DHT22;39382;47.168;16.008;2024-01-25T05:46:25;9.10;49.40
53498;DHT22;39382;47.168;16.008;2024-01-25T05:48:51;9.30;49.40
53498;DHT22;39382;47.168;16.008;2024-01-25T05:51:17;9.30;48.80
53498;DHT22;39382;47.168;16.008;2024-01-25T05:53:43;9.20;49.40
53498;DHT22;39382;47.168;16.008;2024-01-25T05:56:09;9.20;49.90
53498;DHT22;39382;47.168;16.008;2024-01-25T05:58:34;9.30;49.10
53498;DHT22;39382;47.168;16.008;2024-01-25T06:01:00;9.20;49.70
53498;DHT22;39382;47.168;16.008;2024-01-25T06:03:26;9.20;49.30
53498;DHT22;39382;47.168;16.008;2024-01-25T06:05:51;9.30;49.70
53498;DHT22;39382;47.168;16.008;2024-01-25T06:08:17;9.20;49.20
53498;DHT22;39382;47.168;16.008;2024-01-25T06:10:42;9.10;50.40
53498;DHT22;39382;47.168;16.008;2024-01-25T06:13:08;9.00;50.60
53498;DHT22;39382;47.168;16.008;2024-01-25T06:15:34;9.10;51.40
53498;DHT22;39382;47.168;16.008;2024-01-25T06:18:00;9.10;51.90
53498;DHT22;39382;47.168;16.008;2024-01-25T06:20:26;9.00;51.70
53498;DHT22;39382;47.168;16.008;2024-01-25T06:22:51;8.90;52.40
53498;DHT22;39382;47.168;16.008;2024-01-25T06:25:17;9.00;53.80
53498;DHT22;39382;47.168;16.008;2024-01-25T06:27:43;9.10;55.00
53498;DHT22;39382;47.168;16.008;2024-01-25T06:30:09;9.20;55.40
53498;DHT22;39382;47.168;16.008;2024-01-25T06:32:35;9.20;55.50
53498;DHT22;39382;47.168;16.008;2024-01-25T06:35:01;9.30;56.50
53498;DHT22;39382;47.168;16.008;2024-01-25T06:37:26;9.30;57.50
53498;DHT22;39382;47.168;16.008;2024-01-25T06:39:52;9.20;57.90
53498;DHT22;39382;47.168;16.008;2024-01-25T06:42:17;9.20;58.80
53498;DHT22;39382;47.168;16.008;2024-01-25T06:44:44;9.10;59.90
53498;DHT22;39382;47.168;16.008;2024-01-25T06:47:09;9.20;60.70
53498;DHT22;39382;47.168;16.008;2024-01-25T06:49:35;9.20;61.50
53498;DHT22;39382;47.168;16.008;2024-01-25T06:52:01;9.10;62.50
53498;DHT22;39382;47.168;16.008;2024-01-25T06:54:27;9.00;63.30
53498;DHT22;39382;47.168;16.008;2024-01-25T06:56:52;9.10;64.20
53498;DHT22;39382;47.168;16.008;2024-01-25T06:59:18;9.10;64.90
53498;DHT22;39382;47.168;16.008;2024-01-25T07:01:43;9.00;66.00
53498;DHT22;39382;47.168;16.008;2024-01-25T07:04:09;8.90;67.00
53498;DHT22;39382;47.168;16.008;2024-01-25T07:06:35;8.80;68.30
53498;DHT22;39382;47.168;16.008;2024-01-25T07:09:00;8.90;68.90
53498;DHT22;39382;47.168;16.008;2024-01-25T07:11:26;8.90;69.20
53498;DHT22;39382;47.168;16.008;2024-01-25T07:13:52;8.90;70.30
53498;DHT22;39382;47.168;16.008;2024-01-25T07:16:17;8.80;71.00
53498;DHT22;39382;47.168;16.008;2024-01-25T07:18:44;8.80;72.10
53498;DHT22;39382;47.168;16.008;2024-01-25T07:21:10;8.80;73.20
53498;DHT22;39382;47.168;16.008;2024-01-25T07:23:36;8.90;74.20
53498;DHT22;39382;47.168;16.008;2024-01-25T07:26:02;8.90;74.60
53498;DHT22;39382;47.168;16.008;2024-01-25T07:28:27;9.00;75.40
53498;DHT22;39382;47.168;16.008;2024-01-25T07:30:53;9.00;75.90
53498;DHT22;39382;47.168;16.008;2024-01-25T07:33:19;9.00;76.50
53498;DHT22;39382;47.168;16.008;2024-01-25T07:35:44;8.90;76.40
53498;DHT22;39382;47.168;16.008;2024-01-25T07:38:16;9.00;76.50
53498;DHT22;39382;47.168;16.008;2024-01-25T07:40:42;9.00;77.30
53498;DHT22;39382;47.168;16.008;2024-01-25T07:43:08;9.00;77.80
53498;DHT22;39382;47.168;16.008;2024-01-25T07:45:34;9.00;78.30
53498;DHT22;39382;47.168;16.008;2024-01-25T07:48:00;9.00;78.70
53498;DHT22;39382;47.168;16.008;2024-01-25T07:50:25;9.00;79.20
53498;DHT22;39382;47.168;16.008;2024-01-25T07:52:51;9.00;80.00
53498;DHT22;39382;47.168;16.008;2024-01-25T07:55:17;9.00;81.10
53498;DHT22;39382;47.168;16.008;2024-01-25T07:57:43;8.90;82.10
53498;DHT22;39382;47.168;16.008;2024-01-25T08:00:08;8.90;83.70
53498;DHT22;39382;47.168;16.008;2024-01-25T08:02:35;8.80;83.80
53498;DHT22;39382;47.168;16.008;2024-01-25T08:05:01;8.80;84.30
53498;DHT22;39382;47.168;16.008;2024-01-25T08:07:28;8.80;84.20
53498;DHT22;39382;47.168;16.008;2024-01-25T08:09:53;8.90;84.70
53498;DHT22;39382;47.168;16.008;2024-01-25T08:12:23;8.90;85.30
53498;DHT22;39382;47.168;16.008;2024-01-25T08:14:49;8.90;86.00
53498;DHT22;39382;47.168;16.008;2024-01-25T08:17:15;8.90;86.30
53498;DHT22;39382;47.168;16.008;2024-01-25T08:19:41;8.80;86.30
53498;DHT22;39382;47.168;16.008;2024-01-25T08:22:07;8.90;86.80
53498;DHT22;39382;47.168;16.008;2024-01-25T08:24:32;8.90;85.40
53498;DHT22;39382;47.168;16.008;2024-01-25T08:26:58;9.00;85.20
53498;DHT22;39382;47.168;16.008;2024-01-25T08:29:23;9.10;83.80
53498;DHT22;39382;47.168;16.008;2024-01-25T08:31:49;9.20;83.90
53498;DHT22;39382;47.168;16.008;2024-01-25T08:34:15;9.20;83.10
53498;DHT22;39382;47.168;16.008;2024-01-25T08:36:40;9.30;82.00
53498;DHT22;39382;47.168;16.008;2024-01-25T08:39:06;9.40;80.50
53498;DHT22;39382;47.168;16.008;2024-01-25T08:41:34;9.50;78.50
53498;DHT22;39382;47.168;16.008;2024-01-25T08:44:00;9.60;76.90
53498;DHT22;39382;47.168;16.008;2024-01-25T08:46:26;9.60;76.30
53498;DHT22;39382;47.168;16.008;2024-01-25T08:48:52;9.70;74.40
53498;DHT22;39382;47.168;16.008;2024-01-25T08:51:17;9.80;72.00
53498;DHT22;39382;47.168;16.008;2024-01-25T08:53:43;10.00;75.20
53498;DHT22;39382;47.168;16.008;2024-01-25T08:56:09;10.10;69.70
53498;DHT22;39382;47.168;16.008;2024-01-25T08:58:35;10.20;67.90
53498;DHT22;39382;47.168;16.008;2024-01-25T09:01:00;10.30;67.60
53498;DHT22;39382;47.168;16.008;2024-01-25T09:03:26;10.40;65.50
53498;DHT22;39382;47.168;16.008;2024-01-25T09:05:52;10.40;65.40
53498;DHT22;39382;47.168;16.008;2024-01-25T09:08:18;10.50;64.60
53498;DHT22;39382;47.168;16.008;2024-01-25T09:10:43;10.50;64.80
53498;DHT22;39382;47.168;16.008;2024-01-25T09:13:10;10.70;62.50
53498;DHT22;39382;47.168;16.008;2024-01-25T09:15:36;10.70;61.70
53498;DHT22;39382;47.168;16.008;2024-01-25T09:18:01;10.70;61.20
53498;DHT22;39382;47.168;16.008;2024-01-25T09:20:27;10.80;61.60
53498;DHT22;39382;47.168;16.008;2024-01-25T09:22:53;10.80;62.20
53498;DHT22;39382;47.168;16.008;2024-01-25T09:25:21;10.80;60.70
53498;DHT22;39382;47.168;16.008;2024-01-25T09:27:47;10.90;60.00
53498;DHT22;39382;47.168;16.008;2024-01-25T09:30:13;11.00;58.30
53498;DHT22;39382;47.168;16.008;2024-01-25T09:32:39;11.10;58.30
53498;DHT22;39382;47.168;16.008;2024-01-25T09:35:05;11.10;58.00
53498;DHT22;39382;47.168;16.008;2024-01-25T09:37:31;11.20;57.70
53498;DHT22;39382;47.168;16.008;2024-01-25T09:39:57;11.20;55.30
53498;DHT22;39382;47.168;16.008;2024-01-25T09:42:24;11.30;55.10
53498;DHT22;39382;47.168;16.008;2024-01-25T09:44:52;11.30;56.80
53498;DHT22;39382;47.168;16.008;2024-01-25T09:47:19;11.40;54.40
53498;DHT22;39382;47.168;16.008;2024-01-25T09:49:46;11.60;53.50
53498;DHT22;39382;47.168;16.008;2024-01-25T09:52:13;11.60;53.10
53498;DHT22;39382;47.168;16.008;2024-01-25T09:54:38;11.60;53.90
53498;DHT22;39382;47.168;16.008;2024-01-25T09:57:15;11.60;53.70
53498;DHT22;39382;47.168;16.008;2024-01-25T09:59:44;11.70;51.00
53498;DHT22;39382;47.168;16.008;2024-01-25T10:02:11;11.70;52.30
53498;DHT22;39382;47.168;16.008;2024-01-25T10:04:37;11.80;52.20
53498;DHT22;39382;47.168;16.008;2024-01-25T10:07:03;11.90;52.20
53498;DHT22;39382;47.168;16.008;2024-01-25T10:09:37;11.90;50.60
53498;DHT22;39382;47.168;16.008;2024-01-25T10:12:03;11.90;47.90
53498;DHT22;39382;47.168;16.008;2024-01-25T10:14:30;12.00;48.80
53498;DHT22;39382;47.168;16.008;2024-01-25T10:16:57;12.00;49.80
53498;DHT22;39382;47.168;16.008;2024-01-25T10:19:23;12.00;48.80
53498;DHT22;39382;47.168;16.008;2024-01-25T10:21:50;12.10;47.60
53498;DHT22;39382;47.168;16.008;2024-01-25T10:24:15;12.10;49.00
53498;DHT22;39382;47.168;16.008;2024-01-25T10:26:41;12.10;47.30
53498;DHT22;39382;47.168;16.008;2024-01-25T10:29:08;12.10;47.00
53498;DHT22;39382;47.168;16.008;2024-01-25T10:31:38;12.20;48.60
53498;DHT22;39382;47.168;16.008;2024-01-25T10:34:07;12.20;48.40
53498;DHT22;39382;47.168;16.008;2024-01-25T10:36:34;12.20;48.00
53498;DHT22;39382;47.168;16.008;2024-01-25T10:39:03;12.30;46.60
53498;DHT22;39382;47.168;16.008;2024-01-25T10:41:31;12.30;47.10
53498;DHT22;39382;47.168;16.008;2024-01-25T10:43:56;12.30;46.90
53498;DHT22;39382;47.168;16.008;2024-01-25T10:46:22;12.30;46.50
53498;DHT22;39382;47.168;16.008;2024-01-25T10:48:48;12.40;47.50
53498;DHT22;39382;47.168;16.008;2024-01-25T10:51:15;12.40;46.90
53498;DHT22;39382;47.168;16.008;2024-01-25T10:53:44;12.50;45.40
53498;DHT22;39382;47.168;16.008;2024-01-25T10:56:10;12.50;44.90
53498;DHT22;39382;47.168;16.008;2024-01-25T10:58:40;12.40;43.30
53498;DHT22;39382;47.168;16.008;2024-01-25T11:01:10;12.40;41.80
53498;DHT22;39382;47.168;16.008;2024-01-25T11:03:40;12.30;40.40
53498;DHT22;39382;47.168;16.008;2024-01-25T11:06:10;12.40;41.60
53498;DHT22;39382;47.168;16.008;2024-01-25T11:08:39;12.40;43.30
53498;DHT22;39382;47.168;16.008;2024-01-25T11:11:06;12.40;42.00
53498;DHT22;39382;47.168;16.008;2024-01-25T11:13:33;12.40;43.90
53498;DHT22;39382;47.168;16.008;2024-01-25T11:15:59;12.40;41.40
53498;DHT22;39382;47.168;16.008;2024-01-25T11:18:25;12.40;42.30
53498;DHT22;39382;47.168;16.008;2024-01-25T11:20:51;12.40;42.10
53498;DHT22;39382;47.168;16.008;2024-01-25T11:23:17;12.30;40.70
53498;DHT22;39382;47.168;16.008;2024-01-25T11:25:47;12.30;39.90
53498;DHT22;39382;47.168;16.008;2024-01-25T11:28:14;12.30;40.20
53498;DHT22;39382;47.168;16.008;2024-01-25T11:30:43;12.30;41.40
53498;DHT22;39382;47.168;16.008;2024-01-25T11:33:09;12.40;40.40
53498;DHT22;39382;47.168;16.008;2024-01-25T11:35:35;12.30;40.20
53498;DHT22;39382;47.168;16.008;2024-01-25T11:38:01;12.40;40.60
53498;DHT22;39382;47.168;16.008;2024-01-25T11:40:27;12.40;40.00
53498;DHT22;39382;47.168;16.008;2024-01-25T11:42:56;12.60;40.30
53498;DHT22;39382;47.168;16.008;2024-01-25T11:45:22;12.50;37.50
53498;DHT22;39382;47.168;16.008;2024-01-25T11:47:48;12.50;40.20
53498;DHT22;39382;47.168;16.008;2024-01-25T11:50:14;12.50;39.60
53498;DHT22;39382;47.168;16.008;2024-01-25T11:52:40;12.50;41.50
53498;DHT22;39382;47.168;16.008;2024-01-25T11:55:07;12.50;40.70
53498;DHT22;39382;47.168;16.008;2024-01-25T11:57:40;12.50;42.30
53498;DHT22;39382;47.168;16.008;2024-01-25T12:00:11;12.60;39.50
53498;DHT22;39382;47.168;16.008;2024-01-25T12:02:38;12.60;40.00
53498;DHT22;39382;47.168;16.008;2024-01-25T12:05:05;12.60;39.30
53498;DHT22;39382;47.168;16.008;2024-01-25T12:07:31;12.60;39.00
53498;DHT22;39382;47.168;16.008;2024-01-25T12:10:02;12.70;38.50
53498;DHT22;39382;47.168;16.008;2024-01-25T12:12:28;12.70;39.40
53498;DHT22;39382;47.168;16.008;2024-01-25T12:14:58;12.70;39.90
53498;DHT22;39382;47.168;16.008;2024-01-25T12:17:26;12.80;39.40
53498;DHT22;39382;47.168;16.008;2024-01-25T12:19:57;12.80;37.70
53498;DHT22;39382;47.168;16.008;2024-01-25T12:22:24;12.80;37.00
53498;DHT22;39382;47.168;16.008;2024-01-25T12:24:57;12.90;39.70
53498;DHT22;39382;47.168;16.008;2024-01-25T12:27:24;12.90;38.20
53498;DHT22;39382;47.168;16.008;2024-01-25T12:29:51;12.90;38.10
53498;DHT22;39382;47.168;16.008;2024-01-25T12:32:18;12.90;37.60
53498;DHT22;39382;47.168;16.008;2024-01-25T12:34:58;12.90;36.50
53498;DHT22;39382;47.168;16.008;2024-01-25T12:37:24;13.00;38.30
53498;DHT22;39382;47.168;16.008;2024-01-25T12:39:54;13.00;36.90
53498;DHT22;39382;47.168;16.008;2024-01-25T12:42:20;12.90;36.50
53498;DHT22;39382;47.168;16.008;2024-01-25T12:44:47;12.90;38.00
53498;DHT22;39382;47.168;16.008;2024-01-25T12:47:13;12.80;37.90
53498;DHT22;39382;47.168;16.008;2024-01-25T12:49:44;12.80;38.70
53498;DHT22;39382;47.168;16.008;2024-01-25T12:52:11;12.80;38.00
53498;DHT22;39382;47.168;16.008;2024-01-25T12:54:37;12.80;35.80
53498;DHT22;39382;47.168;16.008;2024-01-25T12:57:04;12.70;39.20
53498;DHT22;39382;47.168;16.008;2024-01-25T12:59:29;12.70;39.10
53498;DHT22;39382;47.168;16.008;2024-01-25T13:01:55;12.70;38.40
53498;DHT22;39382;47.168;16.008;2024-01-25T13:04:21;12.70;38.70
53498;DHT22;39382;47.168;16.008;2024-01-25T13:06:48;12.60;37.10
53498;DHT22;39382;47.168;16.008;2024-01-25T13:09:13;12.70;38.40
53498;DHT22;39382;47.168;16.008;2024-01-25T13:11:41;12.60;35.60
53498;DHT22;39382;47.168;16.008;2024-01-25T13:14:07;12.70;36.60
53498;DHT22;39382;47.168;16.008;2024-01-25T13:16:33;12.70;38.90
53498;DHT22;39382;47.168;16.008;2024-01-25T13:18:58;12.70;37.80
53498;DHT22;39382;47.168;16.008;2024-01-25T13:21:24;12.60;35.30
53498;DHT22;39382;47.168;16.008;2024-01-25T13:23:50;12.60;36.50
53498;DHT22;39382;47.168;16.008;2024-01-25T13:26:16;12.50;38.00
53498;DHT22;39382;47.168;16.008;2024-01-25T13:28:41;12.50;36.00
53498;DHT22;39382;47.168;16.008;2024-01-25T13:31:07;12.50;35.80
53498;DHT22;39382;47.168;16.008;2024-01-25T13:33:33;12.40;34.40
53498;DHT22;39382;47.168;16.008;2024-01-25T13:35:58;12.40;33.30
53498;DHT22;39382;47.168;16.008;2024-01-25T13:38:24;12.40;35.00
53498;DHT22;39382;47.168;16.008;2024-01-25T13:40:50;12.40;33.90
53498;DHT22;39382;47.168;16.008;2024-01-25T13:43:16;12.40;34.50
53498;DHT22;39382;47.168;16.008;2024-01-25T13:45:42;12.40;33.80
53498;DHT22;39382;47.168;16.008;2024-01-25T13:48:08;12.30;35.70
53498;DHT22;39382;47.168;16.008;2024-01-25T13:50:33;12.30;34.30
53498;DHT22;39382;47.168;16.008;2024-01-25T13:52:59;12.40;35.00
53498;DHT22;39382;47.168;16.008;2024-01-25T13:55:24;12.30;35.40
53498;DHT22;39382;47.168;16.008;2024-01-25T13:57:50;12.30;36.70
53498;DHT22;39382;47.168;16.008;2024-01-25T14:00:16;12.20;37.00
53498;DHT22;39382;47.168;16.008;2024-01-25T14:02:42;12.20;35.90
53498;DHT22;39382;47.168;16.008;2024-01-25T14:05:11;12.20;36.50
53498;DHT22;39382;47.168;16.008;2024-01-25T14:07:36;12.20;36.60
53498;DHT22;39382;47.168;16.008;2024-01-25T14:10:02;12.20;36.20
53498;DHT22;39382;47.168;16.008;2024-01-25T14:12:28;12.20;36.20
53498;DHT22;39382;47.168;16.008;2024-01-25T14:14:53;12.10;36.70
53498;DHT22;39382;47.168;16.008;2024-01-25T14:17:19;12.10;36.30
53498;DHT22;39382;47.168;16.008;2024-01-25T14:19:45;12.10;37.20
53498;DHT22;39382;47.168;16.008;2024-01-25T14:22:10;12.10;35.90
53498;DHT22;39382;47.168;16.008;2024-01-25T14:24:36;12.10;36.60
53498;DHT22;39382;47.168;16.008;2024-01-25T14:27:02;12.00;36.90
53498;DHT22;39382;47.168;16.008;2024-01-25T14:29:28;12.10;36.00
53498;DHT22;39382;47.168;16.008;2024-01-25T14:31:58;12.00;36.00
53498;DHT22;39382;47.168;16.008;2024-01-25T14:34:23;11.90;36.50
53498;DHT22;39382;47.168;16.008;2024-01-25T14:36:49;11.90;37.50
53498;DHT22;39382;47.168;16.008;2024-01-25T14:39:16;11.70;39.20
53498;DHT22;39382;47.168;16.008;2024-01-25T14:41:45;11.50;39.40
53498;DHT22;39382;47.168;16.008;2024-01-25T14:44:11;11.50;39.60
53498;DHT22;39382;47.168;16.008;2024-01-25T14:46:37;11.50;38.80
53498;DHT22;39382;47.168;16.008;2024-01-25T14:49:03;11.50;37.60
53498;DHT22;39382;47.168;16.008;2024-01-25T14:51:29;11.60;36.30
53498;DHT22;39382;47.168;16.008;2024-01-25T14:53:55;11.50;37.40
53498;DHT22;39382;47.168;16.008;2024-01-25T14:56:20;11.50;37.10
53498;DHT22;39382;47.168;16.008;2024-01-25T14:58:46;11.40;37.50
53498;DHT22;39382;47.168;16.008;2024-01-25T15:01:16;11.30;38.40
53498;DHT22;39382;47.168;16.008;2024-01-25T15:03:48;11.20;38.90
53498;DHT22;39382;47.168;16.008;2024-01-25T15:06:13;11.00;38.60
53498;DHT22;39382;47.168;16.008;2024-01-25T15:08:39;10.90;39.00
53498;DHT22;39382;47.168;16.008;2024-01-25T15:11:06;10.80;38.80
53498;DHT22;39382;47.168;16.008;2024-01-25T15:13:32;10.70;38.70
53498;DHT22;39382;47.168;16.008;2024-01-25T15:15:58;10.60;39.00